createdAt,value
2017-02-21T00:01:05.874Z,24.2
2017-02-21T00:02:13.964Z,24.2
2017-02-21T00:03:22.057Z,24.3
2017-02-21T00:04:30.138Z,24.3
2017-02-21T00:05:38.222Z,24.3
2017-02-21T00:06:46.313Z,24.3
2017-02-21T00:07:54.404Z,24.3
2017-02-21T00:09:02.488Z,24.3
2017-02-21T00:10:10.575Z,24.3
2017-02-21T00:11:18.683Z,24.3
2017-02-21T00:12:26.764Z,24.3
2017-02-21T00:13:34.849Z,24.4
2017-02-21T00:14:42.934Z,24.5
2017-02-21T00:15:51.021Z,24.5
2017-02-21T00:16:59.123Z,24.4
2017-02-21T00:18:07.200Z,24.3
2017-02-21T00:19:15.294Z,24.4
2017-02-21T00:20:23.384Z,24.5
2017-02-21T00:21:31.471Z,24.5
2017-02-21T00:22:39.575Z,24.5
2017-02-21T00:23:47.662Z,24.5
2017-02-21T00:24:55.749Z,24.5
2017-02-21T00:26:03.836Z,24.6
2017-02-21T00:27:11.924Z,24.6
2017-02-21T00:28:20.022Z,24.6
2017-02-21T00:29:28.101Z,24.5
2017-02-21T00:30:36.197Z,24.6
2017-02-21T00:31:44.284Z,24.6
2017-02-21T00:32:52.372Z,24.6
2017-02-21T00:34:00.460Z,24.6
2017-02-21T00:35:08.551Z,24.6
2017-02-21T00:36:16.642Z,24.6
2017-02-21T00:37:24.729Z,24.6
2017-02-21T00:38:32.817Z,24.6
2017-02-21T00:39:40.903Z,24.6
2017-02-21T00:40:48.991Z,24.6
2017-02-21T00:41:57.081Z,24.6
2017-02-21T00:43:05.249Z,24.6
2017-02-21T00:44:13.256Z,24.6
2017-02-21T00:45:21.344Z,24.6
2017-02-21T00:46:29.436Z,24.6
2017-02-21T00:47:37.526Z,24.6
2017-02-21T00:48:45.612Z,24.6
2017-02-21T00:49:53.698Z,24.6
2017-02-21T00:51:01.792Z,24.6
2017-02-21T00:52:09.882Z,24.6
2017-02-21T00:53:17.978Z,24.6
2017-02-21T00:54:26.061Z,24.6
2017-02-21T00:55:34.148Z,24.6
2017-02-21T00:56:42.236Z,24.7
2017-02-21T00:57:50.324Z,24.6
2017-02-21T00:58:58.420Z,24.6
2017-02-21T01:00:06.506Z,24.8
2017-02-21T01:01:14.589Z,24.6
2017-02-21T01:02:22.684Z,24.7
2017-02-21T01:03:30.772Z,24.6
2017-02-21T01:04:38.854Z,24.7
2017-02-21T01:05:46.948Z,24.7
2017-02-21T01:06:55.039Z,24.7
2017-02-21T01:08:03.123Z,24.7
2017-02-21T01:09:11.256Z,24.6
2017-02-21T01:10:19.312Z,24.7
2017-02-21T01:11:27.400Z,24.7
2017-02-21T01:12:35.491Z,24.7
2017-02-21T01:13:43.579Z,24.7
2017-02-21T01:14:51.670Z,24.8
2017-02-21T01:15:59.761Z,24.7
2017-02-21T01:17:07.847Z,24.8
2017-02-21T01:18:15.937Z,24.8
2017-02-21T01:19:24.032Z,24.7
2017-02-21T01:20:32.122Z,24.8
2017-02-21T01:21:40.216Z,24.8
2017-02-21T01:22:48.303Z,24.8
2017-02-21T01:23:56.394Z,24.8
2017-02-21T01:25:04.477Z,24.8
2017-02-21T01:26:12.569Z,24.8
2017-02-21T01:27:20.662Z,24.7
2017-02-21T01:28:28.746Z,24.7
2017-02-21T01:29:36.846Z,24.8
2017-02-21T01:30:44.932Z,24.8
2017-02-21T01:31:53.021Z,24.7
2017-02-21T01:33:01.111Z,24.8
2017-02-21T01:34:09.207Z,24.8
2017-02-21T01:35:17.298Z,24.8
2017-02-21T01:36:25.384Z,24.7
2017-02-21T01:37:33.475Z,24.8
2017-02-21T01:38:41.563Z,24.8
2017-02-21T01:39:49.656Z,24.8
2017-02-21T01:40:57.745Z,24.9
2017-02-21T01:42:05.859Z,24.8
2017-02-21T01:43:13.919Z,24.8
2017-02-21T01:44:22.012Z,24.7
2017-02-21T01:45:30.103Z,24.8
2017-02-21T01:46:38.196Z,24.9
2017-02-21T01:47:46.288Z,24.8
2017-02-21T01:48:54.374Z,24.8
2017-02-21T01:50:02.469Z,24.9
2017-02-21T01:51:10.557Z,24.8
2017-02-21T01:52:18.644Z,24.8
2017-02-21T01:53:26.735Z,24.7
2017-02-21T01:54:34.825Z,24.8
2017-02-21T01:55:42.910Z,24.7
2017-02-21T01:56:50.997Z,24.8
2017-02-21T01:57:59.094Z,24.8
2017-02-21T01:59:07.189Z,24.9
2017-02-21T02:00:15.277Z,24.9
2017-02-21T02:01:23.367Z,24.8
2017-02-21T02:02:31.457Z,24.8
2017-02-21T02:03:39.543Z,24.8
2017-02-21T02:04:47.629Z,24.8
2017-02-21T02:05:55.720Z,24.7
2017-02-21T02:07:03.808Z,24.8
2017-02-21T02:08:11.895Z,24.8
2017-02-21T02:09:19.988Z,24.7
2017-02-21T02:10:28.115Z,24.7
2017-02-21T02:11:36.160Z,24.7
2017-02-21T02:12:44.249Z,24.8
2017-02-21T02:13:52.346Z,24.7
2017-02-21T02:15:00.438Z,24.8
2017-02-21T02:16:08.523Z,24.8
2017-02-21T02:17:16.616Z,24.8
2017-02-21T02:18:24.706Z,24.8
2017-02-21T02:19:32.795Z,24.7
2017-02-21T02:20:40.890Z,24.7
2017-02-21T02:21:48.976Z,24.7
2017-02-21T02:22:57.072Z,24.8
2017-02-21T02:24:05.153Z,24.8
2017-02-21T02:25:13.251Z,24.8
2017-02-21T02:26:21.340Z,24.6
2017-02-21T02:27:29.430Z,24.7
2017-02-21T02:28:37.518Z,24.7
2017-02-21T02:29:45.606Z,24.6
2017-02-21T02:30:53.694Z,24.6
2017-02-21T02:32:01.841Z,24.7
2017-02-21T02:33:09.873Z,24.6
2017-02-21T02:34:17.964Z,24.6
2017-02-21T02:35:26.044Z,24.6
2017-02-21T02:36:34.139Z,24.6
2017-02-21T02:37:42.233Z,24.6
2017-02-21T02:38:50.324Z,24.6
2017-02-21T02:39:58.409Z,24.7
2017-02-21T02:41:06.501Z,24.6
2017-02-21T02:42:14.593Z,24.6
2017-02-21T02:43:22.680Z,24.8
2017-02-21T02:44:30.775Z,24.6
2017-02-21T02:45:38.860Z,24.6
2017-02-21T02:46:46.953Z,24.6
2017-02-21T02:47:55.047Z,24.5
2017-02-21T02:49:03.140Z,24.6
2017-02-21T02:50:11.228Z,24.6
2017-02-21T02:51:19.320Z,24.6
2017-02-21T02:52:27.405Z,24.6
2017-02-21T02:53:35.497Z,24.6
2017-02-21T02:54:43.580Z,24.6
2017-02-21T02:55:51.670Z,24.6
2017-02-21T02:56:59.759Z,24.6
2017-02-21T02:58:07.847Z,24.6
2017-02-21T02:59:15.931Z,24.6
2017-02-21T03:00:24.023Z,24.5
2017-02-21T03:01:32.111Z,24.6
2017-02-21T03:02:40.200Z,24.6
2017-02-21T03:03:48.282Z,24.6
2017-02-21T03:04:56.377Z,24.6
2017-02-21T03:06:04.465Z,24.5
2017-02-21T03:07:12.548Z,24.6
2017-02-21T03:08:20.642Z,24.6
2017-02-21T03:09:28.728Z,24.5
2017-02-21T03:10:36.813Z,24.5
2017-02-21T03:11:44.904Z,24.6
2017-02-21T03:12:53.001Z,24.5
2017-02-21T03:14:01.089Z,24.6
2017-02-21T03:15:09.178Z,24.5
2017-02-21T03:16:17.269Z,24.5
2017-02-21T03:17:25.350Z,24.5
2017-02-21T03:18:33.434Z,24.5
2017-02-21T03:19:41.531Z,24.4
2017-02-21T03:20:49.621Z,24.4
2017-02-21T03:21:57.709Z,24.5
2017-02-21T03:23:05.799Z,24.3
2017-02-21T03:24:13.886Z,24.5
2017-02-21T03:25:21.981Z,24.3
2017-02-21T03:26:30.069Z,24.3
2017-02-21T03:27:38.151Z,24.3
2017-02-21T03:28:46.250Z,24.4
2017-02-21T03:29:54.331Z,24.4
2017-02-21T03:31:02.415Z,24.4
2017-02-21T03:32:10.509Z,24.4
2017-02-21T03:33:18.596Z,24.4
2017-02-21T03:34:26.682Z,24.3
2017-02-21T03:35:34.770Z,24.4
2017-02-21T03:36:42.861Z,24.3
2017-02-21T03:37:50.948Z,24.3
2017-02-21T03:38:59.036Z,24.3
2017-02-21T03:40:07.122Z,24.3
2017-02-21T03:41:15.212Z,24.3
2017-02-21T03:42:23.294Z,24.3
2017-02-21T03:43:31.384Z,24.2
2017-02-21T03:44:39.481Z,24.3
2017-02-21T03:45:47.565Z,24.3
2017-02-21T03:46:55.656Z,24.2
2017-02-21T03:48:03.747Z,24.2
2017-02-21T03:49:11.834Z,24.2
2017-02-21T03:50:19.922Z,24.2
2017-02-21T03:51:28.011Z,24.2
2017-02-21T03:52:36.121Z,24.2
2017-02-21T03:53:44.186Z,24.1
2017-02-21T03:54:52.275Z,24.2
2017-02-21T03:56:00.367Z,24.2
2017-02-21T03:57:08.451Z,24.2
2017-02-21T03:58:16.542Z,24.2
2017-02-21T03:59:24.635Z,24.1
2017-02-21T04:00:32.725Z,24.1
2017-02-21T04:01:40.822Z,24.1
2017-02-21T04:02:48.910Z,24.1
2017-02-21T04:03:57.005Z,24.0
2017-02-21T04:05:05.095Z,24.1
2017-02-21T04:06:13.174Z,24.0
2017-02-21T04:07:21.273Z,24.1
2017-02-21T04:08:29.356Z,24.1
2017-02-21T04:09:37.444Z,24.1
2017-02-21T04:10:45.537Z,24.0
2017-02-21T04:11:53.634Z,23.9
2017-02-21T04:13:01.722Z,23.9
2017-02-21T04:14:09.810Z,24.0
2017-02-21T04:15:17.902Z,24.1
2017-02-21T04:16:25.994Z,24.1
2017-02-21T04:17:34.086Z,24.0
2017-02-21T04:18:42.171Z,24.1
2017-02-21T04:19:50.259Z,24.0
2017-02-21T04:20:58.344Z,23.9
2017-02-21T04:22:06.440Z,23.9
2017-02-21T04:23:14.528Z,24.0
2017-02-21T04:24:22.620Z,23.9
2017-02-21T04:25:30.706Z,23.9
2017-02-21T04:26:38.793Z,23.9
2017-02-21T04:27:46.877Z,23.9
2017-02-21T04:28:54.974Z,23.9
2017-02-21T04:30:03.062Z,23.9
2017-02-21T04:31:11.158Z,23.8
2017-02-21T04:32:19.247Z,23.8
2017-02-21T04:33:27.333Z,23.9
2017-02-21T04:34:35.425Z,23.8
2017-02-21T04:35:43.515Z,23.8
2017-02-21T04:36:51.636Z,23.8
2017-02-21T04:37:59.688Z,23.8
2017-02-21T04:39:07.870Z,23.8
2017-02-21T04:40:15.863Z,23.8
2017-02-21T04:41:23.955Z,23.8
2017-02-21T04:42:32.044Z,23.8
2017-02-21T04:43:40.141Z,23.7
2017-02-21T04:44:48.228Z,23.7
2017-02-21T04:45:56.314Z,23.7
2017-02-21T04:47:04.406Z,23.7
2017-02-21T04:48:12.495Z,23.7
2017-02-21T04:49:20.577Z,23.7
2017-02-21T04:50:28.673Z,23.7
2017-02-21T04:51:36.759Z,23.7
2017-02-21T04:52:44.846Z,23.6
2017-02-21T04:53:52.935Z,23.7
2017-02-21T04:55:01.023Z,23.6
2017-02-21T04:56:09.140Z,23.7
2017-02-21T04:57:17.199Z,23.6
2017-02-21T04:58:25.291Z,23.6
2017-02-21T04:59:33.379Z,23.7
2017-02-21T05:00:41.466Z,23.6
2017-02-21T05:01:49.554Z,23.6
2017-02-21T05:02:57.641Z,23.6
2017-02-21T05:04:05.728Z,23.5
2017-02-21T05:05:13.815Z,23.6
2017-02-21T05:06:21.915Z,23.5
2017-02-21T05:07:29.997Z,23.6
2017-02-21T05:08:38.093Z,23.5
2017-02-21T05:09:46.209Z,23.6
2017-02-21T05:10:54.294Z,23.6
2017-02-21T05:12:02.358Z,23.5
2017-02-21T05:13:10.447Z,23.5
2017-02-21T05:14:18.533Z,23.5
2017-02-21T05:15:26.625Z,23.5
2017-02-21T05:16:34.720Z,23.5
2017-02-21T05:17:42.809Z,23.5
2017-02-21T05:18:50.895Z,23.4
2017-02-21T05:19:58.986Z,23.4
2017-02-21T05:21:07.071Z,23.4
2017-02-21T05:22:15.160Z,23.4
2017-02-21T05:23:23.250Z,23.4
2017-02-21T05:24:31.332Z,23.5
2017-02-21T05:25:39.420Z,23.3
2017-02-21T05:26:47.509Z,23.3
2017-02-21T05:27:55.605Z,23.3
2017-02-21T05:29:03.688Z,23.5
2017-02-21T05:30:11.781Z,23.4
2017-02-21T05:31:19.876Z,23.4
2017-02-21T05:32:27.956Z,23.4
2017-02-21T05:33:36.049Z,23.4
2017-02-21T05:34:44.141Z,23.4
2017-02-21T05:35:52.234Z,23.3
2017-02-21T05:37:00.312Z,23.3
2017-02-21T05:38:08.402Z,23.4
2017-02-21T05:39:16.491Z,23.3
2017-02-21T05:40:24.586Z,23.3
2017-02-21T05:41:32.973Z,23.3
2017-02-21T05:42:40.762Z,23.3
2017-02-21T05:43:48.850Z,23.3
2017-02-21T05:44:56.938Z,23.3
2017-02-21T05:46:05.035Z,23.3
2017-02-21T05:47:13.123Z,23.3
2017-02-21T05:48:21.211Z,23.4
2017-02-21T05:49:29.303Z,23.4
2017-02-21T05:50:37.393Z,23.4
2017-02-21T05:51:45.482Z,23.3
2017-02-21T05:52:53.566Z,23.3
2017-02-21T05:54:01.655Z,23.4
2017-02-21T05:55:09.754Z,23.4
2017-02-21T05:56:17.844Z,23.4
2017-02-21T05:57:26.541Z,23.4
2017-02-21T05:58:34.299Z,23.4
2017-02-21T05:59:42.579Z,23.4
2017-02-21T06:00:50.214Z,23.4
2017-02-21T06:01:58.654Z,23.4
2017-02-21T06:03:06.406Z,23.4
2017-02-21T06:04:14.938Z,23.4
2017-02-21T06:05:23.028Z,23.3
2017-02-21T06:06:30.661Z,23.2
2017-02-21T06:07:38.752Z,23.4
2017-02-21T06:08:46.839Z,23.3
2017-02-21T06:09:54.936Z,23.3
2017-02-21T06:11:03.023Z,23.5
2017-02-21T06:12:11.104Z,23.3
2017-02-21T06:13:19.204Z,23.4
2017-02-21T06:14:27.291Z,23.4
2017-02-21T06:15:35.382Z,23.5
2017-02-21T06:16:43.465Z,23.4
2017-02-21T06:17:51.913Z,23.5
2017-02-21T06:18:59.662Z,23.3
2017-02-21T06:20:07.725Z,23.4
2017-02-21T06:21:15.836Z,23.4
2017-02-21T06:22:23.904Z,23.5
2017-02-21T06:23:32.000Z,23.4
2017-02-21T06:24:40.085Z,23.5
2017-02-21T06:25:48.180Z,23.4
2017-02-21T06:26:56.298Z,23.5
2017-02-21T06:28:04.361Z,23.4
2017-02-21T06:29:12.450Z,23.4
2017-02-21T06:30:20.537Z,23.5
2017-02-21T06:31:28.632Z,23.4
2017-02-21T06:32:36.721Z,23.4
2017-02-21T06:33:44.815Z,23.4
2017-02-21T06:34:52.902Z,23.5
2017-02-21T06:36:00.990Z,23.5
2017-02-21T06:37:09.083Z,23.5
2017-02-21T06:38:17.172Z,23.5
2017-02-21T06:39:25.265Z,23.4
2017-02-21T06:40:33.350Z,23.5
2017-02-21T06:41:41.438Z,23.4
2017-02-21T06:42:49.669Z,23.4
2017-02-21T06:43:57.609Z,23.5
2017-02-21T06:45:05.798Z,23.5
2017-02-21T06:47:21.881Z,23.5
2017-02-21T06:48:29.968Z,23.4
2017-02-21T06:49:38.058Z,23.5
2017-02-21T06:50:46.148Z,23.5
2017-02-21T06:51:54.235Z,23.4
2017-02-21T06:53:02.322Z,23.5
2017-02-21T06:54:10.408Z,23.5
2017-02-21T06:55:18.496Z,23.5
2017-02-21T06:56:26.581Z,23.5
2017-02-21T06:57:34.700Z,23.5
2017-02-21T06:58:42.758Z,23.4
2017-02-21T06:59:50.849Z,23.5
2017-02-21T07:00:58.939Z,23.5
2017-02-21T07:02:07.423Z,23.5
2017-02-21T07:03:15.110Z,23.5
2017-02-21T07:04:23.199Z,23.4
2017-02-21T07:05:31.290Z,23.5
2017-02-21T07:06:39.375Z,23.5
2017-02-21T07:07:47.461Z,23.6
2017-02-21T07:08:55.743Z,23.5
2017-02-21T07:10:03.639Z,23.6
2017-02-21T07:11:11.998Z,23.5
2017-02-21T07:12:19.819Z,23.5
2017-02-21T07:13:28.494Z,23.6
2017-02-21T07:14:35.999Z,23.5
2017-02-21T07:15:44.083Z,23.6
2017-02-21T07:16:52.170Z,23.6
2017-02-21T07:18:00.264Z,23.5
2017-02-21T07:19:08.351Z,23.6
2017-02-21T07:20:16.454Z,23.5
2017-02-21T07:21:24.531Z,23.6
2017-02-21T07:22:32.628Z,23.6
2017-02-21T07:23:40.722Z,23.6
2017-02-21T07:24:48.875Z,23.6
2017-02-21T07:25:56.901Z,23.6
2017-02-21T07:27:04.999Z,23.6
2017-02-21T07:28:13.087Z,23.6
2017-02-21T07:29:21.185Z,23.7
2017-02-21T07:30:29.266Z,23.7
2017-02-21T07:31:37.352Z,23.7
2017-02-21T07:32:45.444Z,23.8
2017-02-21T07:33:53.537Z,23.7
2017-02-21T07:35:01.626Z,23.8
2017-02-21T07:36:09.719Z,23.8
2017-02-21T07:37:17.807Z,23.8
2017-02-21T07:38:25.906Z,23.8
2017-02-21T07:39:33.998Z,23.8
2017-02-21T07:40:42.090Z,23.8
2017-02-21T07:41:50.255Z,23.8
2017-02-21T07:42:58.264Z,23.8
2017-02-21T07:44:06.355Z,23.8
2017-02-21T07:45:14.442Z,23.9
2017-02-21T07:46:22.525Z,23.9
2017-02-21T07:47:30.614Z,23.9
2017-02-21T07:48:38.702Z,23.9
2017-02-21T07:49:46.790Z,23.9
2017-02-21T07:50:54.875Z,23.9
2017-02-21T07:52:02.963Z,23.8
2017-02-21T07:53:11.059Z,23.9
2017-02-21T07:54:19.151Z,23.9
2017-02-21T07:55:27.230Z,23.9
2017-02-21T07:56:35.320Z,24.1
2017-02-21T07:57:43.419Z,24.0
2017-02-21T07:58:51.557Z,24.0
2017-02-21T07:59:59.596Z,24.0
2017-02-21T08:01:07.685Z,24.0
2017-02-21T08:02:15.778Z,24.0
2017-02-21T08:03:23.860Z,24.0
2017-02-21T08:04:31.959Z,24.0
2017-02-21T08:05:40.047Z,24.0
2017-02-21T08:06:48.130Z,24.0
2017-02-21T08:07:56.226Z,24.1
2017-02-21T08:09:04.319Z,24.0
2017-02-21T08:10:12.401Z,24.1
2017-02-21T08:11:20.496Z,24.0
2017-02-21T08:12:28.581Z,24.1
2017-02-21T08:13:36.671Z,24.1
2017-02-21T08:14:44.755Z,24.1
2017-02-21T08:15:52.859Z,24.1
2017-02-21T08:17:00.949Z,24.1
2017-02-21T08:18:09.038Z,24.1
2017-02-21T08:19:17.128Z,24.1
2017-02-21T08:20:25.211Z,24.1
2017-02-21T08:21:33.302Z,24.1
2017-02-21T08:22:41.392Z,24.1
2017-02-21T08:23:49.495Z,24.1
2017-02-21T08:24:57.572Z,24.1
2017-02-21T08:26:05.653Z,24.1
2017-02-21T08:27:13.748Z,24.2
2017-02-21T08:28:21.839Z,24.1
2017-02-21T08:29:29.934Z,24.2
2017-02-21T08:30:38.020Z,24.1
2017-02-21T08:31:46.109Z,24.1
2017-02-21T08:32:54.198Z,24.2
2017-02-21T08:34:02.282Z,24.2
2017-02-21T08:35:10.379Z,24.1
2017-02-21T08:36:18.457Z,24.2
2017-02-21T08:37:26.550Z,24.1
2017-02-21T08:38:34.635Z,24.1
2017-02-21T08:39:42.732Z,24.2
2017-02-21T08:40:50.818Z,24.2
2017-02-21T08:41:58.903Z,24.2
2017-02-21T08:43:06.994Z,24.2
2017-02-21T08:44:15.081Z,24.2
2017-02-21T08:45:23.168Z,24.2
2017-02-21T08:46:31.254Z,24.2
2017-02-21T08:47:39.351Z,24.2
2017-02-21T08:48:47.437Z,24.2
2017-02-21T08:49:55.523Z,24.1
2017-02-21T08:51:03.612Z,24.2
2017-02-21T08:52:11.711Z,24.1
2017-02-21T08:53:19.800Z,24.2
2017-02-21T08:54:27.885Z,24.2
2017-02-21T08:55:35.977Z,24.1
2017-02-21T08:56:44.063Z,24.2
2017-02-21T08:57:52.148Z,24.2
2017-02-21T08:59:00.241Z,24.1
2017-02-21T09:00:08.328Z,24.1
2017-02-21T09:01:16.413Z,24.2
2017-02-21T09:02:24.500Z,24.2
2017-02-21T09:03:32.596Z,24.1
2017-02-21T09:04:40.681Z,24.2
2017-02-21T09:05:48.767Z,24.1
2017-02-21T09:06:56.859Z,24.1
2017-02-21T09:08:04.944Z,24.1
2017-02-21T09:09:13.030Z,24.1
2017-02-21T09:10:21.121Z,24.1
2017-02-21T09:11:29.212Z,24.1
2017-02-21T09:12:37.308Z,24.1
2017-02-21T09:13:45.390Z,24.1
2017-02-21T09:14:53.482Z,24.1
2017-02-21T09:16:01.570Z,24.1
2017-02-21T09:17:09.660Z,24.1
2017-02-21T09:18:17.749Z,24.1
2017-02-21T09:19:25.841Z,24.1
2017-02-21T09:20:33.922Z,24.1
2017-02-21T09:21:42.013Z,24.0
2017-02-21T09:22:50.115Z,24.0
2017-02-21T09:23:58.209Z,24.1
2017-02-21T09:25:06.292Z,24.1
2017-02-21T09:26:14.381Z,24.1
2017-02-21T09:27:22.474Z,24.1
2017-02-21T09:28:30.563Z,24.1
2017-02-21T09:29:38.644Z,24.1
2017-02-21T09:30:46.737Z,24.0
2017-02-21T09:31:54.830Z,24.0
2017-02-21T09:33:02.913Z,24.0
2017-02-21T09:34:11.003Z,24.0
2017-02-21T09:35:19.090Z,24.0
2017-02-21T09:36:27.175Z,24.0
2017-02-21T09:37:35.267Z,24.0
2017-02-21T09:38:43.362Z,24.1
2017-02-21T09:39:51.449Z,24.0
2017-02-21T09:40:59.536Z,24.0
2017-02-21T09:42:07.622Z,24.0
2017-02-21T09:43:15.714Z,24.0
2017-02-21T09:44:23.801Z,23.9
2017-02-21T09:45:31.891Z,24.0
2017-02-21T09:46:39.981Z,23.9
2017-02-21T09:47:48.071Z,23.9
2017-02-21T09:48:56.155Z,24.0
2017-02-21T09:50:04.260Z,23.9
2017-02-21T09:51:12.344Z,24.0
2017-02-21T09:52:20.435Z,23.9
2017-02-21T09:53:28.579Z,23.9
2017-02-21T09:54:36.901Z,23.9
2017-02-21T09:55:44.698Z,23.9
2017-02-21T09:56:52.787Z,23.9
2017-02-21T09:58:00.885Z,23.9
2017-02-21T09:59:08.981Z,23.9
2017-02-21T10:00:17.068Z,23.8
2017-02-21T10:01:25.167Z,23.9
2017-02-21T10:02:33.258Z,23.8
2017-02-21T10:03:41.346Z,23.9
2017-02-21T10:04:49.437Z,23.9
2017-02-21T10:05:57.520Z,23.8
2017-02-21T10:07:05.619Z,23.8
2017-02-21T10:08:13.724Z,23.8
2017-02-21T10:09:21.793Z,23.9
2017-02-21T10:10:29.961Z,23.9
2017-02-21T10:11:37.974Z,23.7
2017-02-21T10:12:46.109Z,23.8
2017-02-21T10:13:54.152Z,23.8
2017-02-21T10:15:02.243Z,23.8
2017-02-21T10:16:10.337Z,23.7
2017-02-21T10:17:18.428Z,23.8
2017-02-21T10:18:26.534Z,23.7
2017-02-21T10:19:34.603Z,23.7
2017-02-21T10:20:42.686Z,23.8
2017-02-21T10:21:50.802Z,23.7
2017-02-21T10:22:58.865Z,23.8
2017-02-21T10:24:06.951Z,23.8
2017-02-21T10:25:15.043Z,23.7
2017-02-21T10:26:23.131Z,23.7
2017-02-21T10:27:31.222Z,23.7
2017-02-21T10:28:39.306Z,23.7
2017-02-21T10:29:47.399Z,23.6
2017-02-21T10:30:55.496Z,23.6
2017-02-21T10:32:03.582Z,23.6
2017-02-21T10:33:11.670Z,23.7
2017-02-21T10:34:19.758Z,23.6
2017-02-21T10:35:27.845Z,23.6
2017-02-21T10:36:35.933Z,23.6
2017-02-21T10:37:44.028Z,23.6
2017-02-21T10:38:52.117Z,23.6
2017-02-21T10:40:00.207Z,23.6
2017-02-21T10:41:08.295Z,23.6
2017-02-21T10:42:16.383Z,23.6
2017-02-21T10:43:24.476Z,23.6
2017-02-21T10:44:32.555Z,23.6
2017-02-21T10:45:40.646Z,23.6
2017-02-21T10:46:48.737Z,23.6
2017-02-21T10:47:56.829Z,23.5
2017-02-21T10:49:04.918Z,23.5
2017-02-21T10:50:13.007Z,23.6
2017-02-21T10:51:21.097Z,23.6
2017-02-21T10:52:29.179Z,23.4
2017-02-21T10:53:37.276Z,23.5
2017-02-21T10:54:45.368Z,23.5
2017-02-21T10:55:53.452Z,23.4
2017-02-21T10:57:01.541Z,23.5
2017-02-21T10:58:09.629Z,23.5
2017-02-21T10:59:17.714Z,23.5
2017-02-21T11:00:25.802Z,23.4
2017-02-21T11:01:33.900Z,23.4
2017-02-21T11:02:41.989Z,23.4
2017-02-21T11:03:50.075Z,23.5
2017-02-21T11:04:58.170Z,23.4
2017-02-21T11:06:06.253Z,23.3
2017-02-21T11:07:14.352Z,23.4
2017-02-21T11:08:22.438Z,23.4
2017-02-21T11:09:30.523Z,23.3
2017-02-21T11:10:38.610Z,23.4
2017-02-21T11:11:46.699Z,23.4
2017-02-21T11:12:54.790Z,23.4
2017-02-21T11:14:02.882Z,23.3
2017-02-21T11:15:10.974Z,23.3
2017-02-21T11:16:19.058Z,23.3
2017-02-21T11:17:27.154Z,23.3
2017-02-21T11:18:35.236Z,23.3
2017-02-21T11:19:43.321Z,23.3
2017-02-21T11:20:51.975Z,23.3
2017-02-21T11:21:59.501Z,23.3
2017-02-21T11:23:07.585Z,23.3
2017-02-21T11:24:15.672Z,23.3
2017-02-21T11:25:23.770Z,23.3
2017-02-21T11:26:31.870Z,23.3
2017-02-21T11:27:39.954Z,23.2
2017-02-21T11:28:48.052Z,23.3
2017-02-21T11:29:56.136Z,23.3
2017-02-21T11:31:04.222Z,23.3
2017-02-21T11:32:12.311Z,23.3
2017-02-21T11:33:20.401Z,23.2
2017-02-21T11:34:28.481Z,23.2
2017-02-21T11:35:36.574Z,23.2
2017-02-21T11:36:44.664Z,23.2
2017-02-21T11:37:52.748Z,23.2
2017-02-21T11:39:00.841Z,23.2
2017-02-21T11:40:08.930Z,23.1
2017-02-21T11:41:17.025Z,23.1
2017-02-21T11:42:25.119Z,23.2
2017-02-21T11:43:33.201Z,23.1
2017-02-21T11:44:41.291Z,23.2
2017-02-21T11:45:49.383Z,23.2
2017-02-21T11:46:57.467Z,23.1
2017-02-21T11:48:05.659Z,23.2
2017-02-21T11:49:13.654Z,23.2
2017-02-21T11:50:21.740Z,23.2
2017-02-21T11:51:29.831Z,23.2
2017-02-21T11:52:37.923Z,23.2
2017-02-21T11:53:46.018Z,23.2
2017-02-21T11:54:54.103Z,23.1
2017-02-21T11:56:02.192Z,23.1
2017-02-21T11:57:10.277Z,23.1
2017-02-21T11:58:18.377Z,23.1
2017-02-21T11:59:26.450Z,23.1
2017-02-21T12:00:34.543Z,23.1
2017-02-21T12:01:42.627Z,23.1
2017-02-21T12:02:50.707Z,23.1
2017-02-21T12:03:58.801Z,23.1
2017-02-21T12:05:06.898Z,23.1
2017-02-21T12:06:14.982Z,23.1
2017-02-21T12:07:23.067Z,23.1
2017-02-21T12:08:31.164Z,23.1
2017-02-21T12:09:39.261Z,23.1
2017-02-21T12:10:47.341Z,23.1
2017-02-21T12:11:55.430Z,23.1
2017-02-21T12:13:03.527Z,23.1
2017-02-21T12:14:11.613Z,23.1
2017-02-21T12:15:19.699Z,23.1
2017-02-21T12:16:27.788Z,23.1
2017-02-21T12:17:35.879Z,23.1
2017-02-21T12:18:44.004Z,23.0
2017-02-21T12:19:52.061Z,23.1
2017-02-21T12:21:00.157Z,23.0
2017-02-21T12:22:08.240Z,23.1
2017-02-21T12:23:16.329Z,23.1
2017-02-21T12:24:24.422Z,23.1
2017-02-21T12:25:32.513Z,23.1
2017-02-21T12:26:40.598Z,23.0
2017-02-21T12:27:48.694Z,23.1
2017-02-21T12:28:56.779Z,23.1
2017-02-21T12:30:04.875Z,23.1
2017-02-21T12:31:12.954Z,23.1
2017-02-21T12:32:21.039Z,23.1
2017-02-21T12:33:29.130Z,23.1
2017-02-21T12:34:37.213Z,23.1
2017-02-21T12:35:45.302Z,23.1
2017-02-21T12:36:53.406Z,23.0
2017-02-21T12:38:01.477Z,23.1
2017-02-21T12:39:09.620Z,23.1
2017-02-21T12:40:17.668Z,23.1
2017-02-21T12:41:25.754Z,23.0
2017-02-21T12:42:33.836Z,23.0
2017-02-21T12:43:41.928Z,23.1
2017-02-21T12:44:50.029Z,23.0
2017-02-21T12:45:58.112Z,23.0
2017-02-21T12:47:06.199Z,23.0
2017-02-21T12:48:14.293Z,23.0
2017-02-21T12:49:22.379Z,23.0
2017-02-21T12:50:30.466Z,23.0
2017-02-21T12:51:38.555Z,23.0
2017-02-21T12:52:46.656Z,22.9
2017-02-21T12:53:54.737Z,23.0
2017-02-21T12:55:02.823Z,23.0
2017-02-21T12:56:10.913Z,23.0
2017-02-21T12:57:19.003Z,23.0
2017-02-21T12:58:27.089Z,23.0
2017-02-21T12:59:35.181Z,23.0
2017-02-21T13:00:43.263Z,23.0
2017-02-21T13:01:51.353Z,23.0
2017-02-21T13:02:59.443Z,23.0
2017-02-21T13:04:08.006Z,23.0
2017-02-21T13:05:15.621Z,23.0
2017-02-21T13:06:23.702Z,23.0
2017-02-21T13:07:31.793Z,22.9
2017-02-21T13:08:39.969Z,22.9
2017-02-21T13:09:47.975Z,22.9
2017-02-21T13:10:56.065Z,23.0
2017-02-21T13:12:04.157Z,23.0
2017-02-21T13:13:12.244Z,23.0
2017-02-21T13:14:20.330Z,22.9
2017-02-21T13:15:28.422Z,23.0
2017-02-21T13:16:36.502Z,23.0
2017-02-21T13:17:44.597Z,23.0
2017-02-21T13:18:52.681Z,23.0
2017-02-21T13:20:00.775Z,23.0
2017-02-21T13:21:08.865Z,22.9
2017-02-21T13:22:16.950Z,23.0
2017-02-21T13:23:25.042Z,23.0
2017-02-21T13:24:33.348Z,23.1
2017-02-21T13:25:41.255Z,23.0
2017-02-21T13:26:49.323Z,23.0
2017-02-21T13:27:57.402Z,23.1
2017-02-21T13:29:05.486Z,23.0
2017-02-21T13:30:13.734Z,23.1
2017-02-21T13:31:21.656Z,23.1
2017-02-21T13:32:29.754Z,23.1
2017-02-21T13:33:37.838Z,23.0
2017-02-21T13:34:45.930Z,23.1
2017-02-21T13:35:54.028Z,23.1
2017-02-21T13:37:02.108Z,23.1
2017-02-21T13:38:10.191Z,23.1
2017-02-21T13:39:18.286Z,23.1
2017-02-21T13:40:26.376Z,23.1
2017-02-21T13:41:34.460Z,23.1
2017-02-21T13:42:42.630Z,23.2
2017-02-21T13:43:50.642Z,23.1
2017-02-21T13:44:58.727Z,23.1
2017-02-21T13:46:06.817Z,23.1
2017-02-21T13:47:15.030Z,23.2
2017-02-21T13:48:23.432Z,23.2
2017-02-21T13:49:31.079Z,23.1
2017-02-21T13:50:39.714Z,23.1
2017-02-21T13:51:47.255Z,23.2
2017-02-21T13:52:55.344Z,23.2
2017-02-21T13:54:03.428Z,23.1
2017-02-21T13:55:11.561Z,23.1
2017-02-21T13:56:19.606Z,23.1
2017-02-21T13:57:27.697Z,23.1
2017-02-21T13:58:35.787Z,23.2
2017-02-21T13:59:43.875Z,23.1
2017-02-21T14:02:00.052Z,23.1
2017-02-21T14:03:08.143Z,23.2
2017-02-21T14:04:16.235Z,23.1
2017-02-21T14:05:24.320Z,23.2
2017-02-21T14:06:32.406Z,23.1
2017-02-21T14:07:40.497Z,23.1
2017-02-21T14:08:48.579Z,23.2
2017-02-21T14:09:56.675Z,23.2
2017-02-21T14:11:05.328Z,23.2
2017-02-21T14:12:12.846Z,23.2
2017-02-21T14:13:20.939Z,23.2
2017-02-21T14:14:29.032Z,23.2
2017-02-21T14:15:37.117Z,23.3
2017-02-21T14:16:45.210Z,23.2
2017-02-21T14:17:53.292Z,23.2
2017-02-21T14:19:01.395Z,23.2
2017-02-21T14:20:09.486Z,23.3
2017-02-21T14:21:17.576Z,23.2
2017-02-21T14:22:25.668Z,23.3
2017-02-21T14:23:33.752Z,23.2
2017-02-21T14:24:41.848Z,23.2
2017-02-21T14:25:49.941Z,23.3
2017-02-21T14:26:58.029Z,23.3
2017-02-21T14:28:06.116Z,23.2
2017-02-21T14:29:14.206Z,23.3
2017-02-21T14:30:22.297Z,23.3
2017-02-21T14:31:30.388Z,23.3
2017-02-21T14:32:38.471Z,23.3
2017-02-21T14:33:46.565Z,23.2
2017-02-21T14:34:54.658Z,23.3
2017-02-21T14:36:02.740Z,23.3
2017-02-21T14:37:10.833Z,23.3
2017-02-21T14:38:18.928Z,23.3
2017-02-21T14:40:35.187Z,23.3
2017-02-21T14:41:43.396Z,23.3
2017-02-21T14:42:51.290Z,23.3
2017-02-21T14:43:59.417Z,23.2
2017-02-21T14:45:07.462Z,23.2
2017-02-21T14:46:15.557Z,23.2
2017-02-21T14:47:23.646Z,23.2
2017-02-21T14:48:31.733Z,23.2
2017-02-21T14:49:39.828Z,23.3
2017-02-21T14:50:48.018Z,23.2
2017-02-21T14:51:56.011Z,23.3
2017-02-21T14:53:04.097Z,23.2
2017-02-21T14:54:12.191Z,23.2
2017-02-21T14:55:20.278Z,23.2
2017-02-21T14:56:28.360Z,23.3
2017-02-21T14:57:36.454Z,23.2
2017-02-21T14:58:44.540Z,23.2
2017-02-21T14:59:52.624Z,23.2
2017-02-21T15:01:00.712Z,23.3
2017-02-21T15:02:08.810Z,23.2
2017-02-21T15:03:16.900Z,23.2
2017-02-21T15:04:24.982Z,23.2
2017-02-21T15:05:33.083Z,23.2
2017-02-21T15:06:41.171Z,23.1
2017-02-21T15:07:49.264Z,23.2
2017-02-21T15:08:57.350Z,23.1
2017-02-21T15:10:05.437Z,23.2